This is the latest recevied weather packets stored in our database for station/object K0WXC-1. If no packets are shown the sender has not sent any weather packets the latest 10 day(s).
| Time | Temp. | Humidity | Pressure | Rain* | Wind** | Luminosity | Snow |
|---|---|---|---|---|---|---|---|
| 1777471408 | 10.56° C | 61% | 1006.3 hPa | 0 mm | 1.34 m/s, 317° | - | - |
| 1777471348 | 10.56° C | 61% | 1006.3 hPa | 0 mm | 1.34 m/s, 317° | - | - |
| 1777471288 | 10.56° C | 61% | 1006.3 hPa | 0 mm | 1.34 m/s, 317° | - | - |
| 1777471228 | 10.56° C | 61% | 1006.4 hPa | 0 mm | 2.24 m/s, 4° | - | - |
| 1777471168 | 10.56° C | 61% | 1006.4 hPa | 0 mm | 2.24 m/s, 4° | - | - |
| 1777471108 | 10.56° C | 61% | 1006.4 hPa | 0 mm | 2.24 m/s, 4° | - | - |
| 1777471048 | 10.56° C | 61% | 1006.4 hPa | 0 mm | 2.24 m/s, 4° | - | - |
| 1777470988 | 10.56° C | 61% | 1006.4 hPa | 0 mm | 2.24 m/s, 4° | - | - |
| 1777470928 | 10.56° C | 60% | 1006.3 hPa | 0 mm | 1.34 m/s, 326° | - | - |
| 1777470868 | 10.56° C | 60% | 1006.3 hPa | 0 mm | 1.34 m/s, 326° | - | - |
| 1777470808 | 10.56° C | 60% | 1006.3 hPa | 0 mm | 1.34 m/s, 326° | - | - |
| 1777470748 | 10.56° C | 60% | 1006.3 hPa | 0 mm | 1.34 m/s, 326° | - | - |
| 1777470688 | 10.56° C | 60% | 1006.3 hPa | 0 mm | 1.34 m/s, 326° | - | - |
| 1777470628 | 10.56° C | 60% | 1006.2 hPa | 0 mm | 2.68 m/s, 296° | - | - |
| 1777470568 | 10.56° C | 60% | 1006.2 hPa | 0 mm | 2.68 m/s, 296° | - | - |
| 1777470508 | 10.56° C | 60% | 1006.2 hPa | 0 mm | 2.68 m/s, 296° | - | - |
| 1777470448 | 10.56° C | 60% | 1006.2 hPa | 0 mm | 2.68 m/s, 296° | - | - |
| 1777470388 | 10.56° C | 60% | 1006.2 hPa | 0 mm | 2.68 m/s, 296° | - | - |
| 1777470328 | 10° C | 62% | 1006.2 hPa | 0 mm | 1.79 m/s, 285° | - | - |
| 1777470268 | 10° C | 62% | 1006.2 hPa | 0 mm | 1.79 m/s, 285° | - | - |
| 1777470208 | 10° C | 62% | 1006.2 hPa | 0 mm | 1.79 m/s, 285° | - | - |
| 1777470148 | 10° C | 62% | 1006.2 hPa | 0 mm | 1.79 m/s, 285° | - | - |
| 1777470088 | 10° C | 62% | 1006.2 hPa | 0 mm | 1.79 m/s, 285° | - | - |
| 1777470028 | 10° C | 61% | 1006.1 hPa | 0 mm | 2.68 m/s, 329° | - | - |
| 1777469968 | 10° C | 61% | 1006.1 hPa | 0 mm | 2.68 m/s, 329° | - | - |
* Rain latest hour (hover to see other rain measurements)
** Current wind speed in m/s (hover to see current wind gust speed)